Pine Grove, New York
Current Conditions -  °F | °C
As of 11:58 AM on Thursday 27 Nov 2014 (Local Time) from KGTB Reporting Station
Overcast Overcast  
Wind Chill: 21°   Ceiling: 2600
Heat Index: 27°   Visibility: 10mi
Dew Point: 22°   Wind: 5mph
Humidity: 81%   Direction: 350°N
Pressure: 30.01"   Gusts: NA
Location:  43.7232°N, 75.2497°W
Report Text: KGTB 271658Z AUTO 35004KT 10SM SCT014 OVC026 M03/M06 A3001 RMK AO2 SLP172 T10291058
Loading
Personal Weather Stations






























Interactive Weather Map New forecast layout! Learn more

10-Day Weather Forecast

Advertisements
Track Severe Weather on mobile